Terminal Aerodrome Forecast
Issued by NWS

Home | Current Version | Previous Version | Text Only | Print | Product List | Glossary On
Versions: 1 2 3 4 5 6 7 8 9 10 11 12 13 14 15 16 17 18 19 20 21 22 23 24 25 26 27 28 29 30 31 32 33 34 35 36
000
FTUS46 KEKA 222016 AAA
TAFACV
TAF AMD
KACV 222016Z 2220/2318 32008KT 6SM BR OVC004
     FM222200 27006KT P6SM OVC007
      TEMPO 2222/2224 SCT007 BKN140
     FM230300 24003KT 4SM BR OVC004
     FM230600 VRB02KT 1SM BR OVC002=

USA.gov is the U.S. government's official web portal to all federal, state and local government web resources and services.